Time;durP1;ratioP1;P1;durP2;ratioP2;P2;SDS_P1;SDS_P2;PMS_P1;PMS_P2;Temp;Humidity;BMP_temperature;BMP_pressure;BME280_temperature;BME280_humidity;BME280_pressure;Samples;Min_cycle;Max_cycle;Signal;HPM_P1;HPM_P2
2023/04/06 00:01:42;;;;;;;8.93;7.13;;;4.00;69.10;;;;;;5078509;28;20052;-77
2023/04/06 00:04:08;;;;;;;9.10;6.40;;;4.00;69.10;;;;;;5096717;28;20051;-78
2023/04/06 00:06:34;;;;;;;11.70;6.70;;;4.00;69.00;;;;;;5131093;27;20372;-78
2023/04/06 00:09:00;;;;;;;9.68;6.65;;;3.90;68.90;;;;;;5079536;28;20054;-76
2023/04/06 00:11:26;;;;;;;10.50;6.78;;;4.00;68.80;;;;;;5077477;28;20484;-77
2023/04/06 00:13:52;;;;;;;11.70;7.38;;;3.90;69.00;;;;;;5094457;28;20040;-77
2023/04/06 00:16:18;;;;;;;10.98;7.28;;;3.90;69.00;;;;;;5077531;28;20040;-77
2023/04/06 00:18:44;;;;;;;9.20;7.15;;;3.90;69.10;;;;;;5128511;27;20086;-77
2023/04/06 00:21:14;;;;;;;8.45;6.40;;;3.80;69.30;;;;;;5128702;27;20135;-77
2023/04/06 00:23:41;;;;;;;10.50;6.82;;;3.80;69.30;;;;;;5094238;28;20077;-76
2023/04/06 00:26:07;;;;;;;10.35;7.30;;;3.80;69.30;;;;;;5094300;28;20040;-76
2023/04/06 00:28:33;;;;;;;10.95;6.97;;;3.80;69.40;;;;;;5077999;28;20048;-77
2023/04/06 00:30:59;;;;;;;10.57;6.95;;;3.70;69.60;;;;;;5128637;27;20438;-77
2023/04/06 00:33:25;;;;;;;13.48;7.25;;;3.60;69.90;;;;;;5077257;28;20488;-77
2023/04/06 00:35:51;;;;;;;9.23;6.80;;;3.60;70.00;;;;;;5094013;28;20419;-77
2023/04/06 00:38:17;;;;;;;8.25;6.75;;;3.60;70.30;;;;;;5094223;28;20032;-77
2023/04/06 00:40:46;;;;;;;13.35;7.03;;;3.50;70.40;;;;;;5094020;28;20039;-77
2023/04/06 00:43:13;;;;;;;8.90;6.78;;;3.50;70.80;;;;;;5127941;27;20119;-77
2023/04/06 00:45:40;;;;;;;8.07;6.57;;;3.50;70.80;;;;;;5093828;28;20531;-77
2023/04/06 00:48:07;;;;;;;12.75;6.60;;;3.50;70.60;;;;;;5094023;28;20434;-77
2023/04/06 00:50:33;;;;;;;10.32;6.57;;;3.50;70.80;;;;;;5094075;28;20400;-77
2023/04/06 00:53:00;;;;;;;10.68;7.00;;;3.50;70.70;;;;;;5076684;28;20056;-77
2023/04/06 00:55:29;;;;;;;7.72;6.05;;;3.50;70.80;;;;;;5093538;28;20044;-77
2023/04/06 00:57:58;;;;;;;7.45;6.35;;;3.50;70.40;;;;;;5093630;28;20040;-77
2023/04/06 01:00:24;;;;;;;8.23;6.30;;;3.50;70.70;;;;;;5102825;28;20622;-77
2023/04/06 01:02:50;;;;;;;8.68;6.78;;;3.50;70.70;;;;;;5114250;28;20083;-76
2023/04/06 01:05:16;;;;;;;9.32;6.43;;;3.40;71.10;;;;;;5114902;28;20164;-77
2023/04/06 01:07:41;;;;;;;8.45;6.05;;;3.40;71.10;;;;;;5114905;28;20093;-78
2023/04/06 01:10:07;;;;;;;7.32;6.55;;;3.40;71.30;;;;;;5097790;28;20126;-77
2023/04/06 01:12:33;;;;;;;9.60;6.53;;;3.30;71.40;;;;;;5097089;28;20552;-77
2023/04/06 01:14:59;;;;;;;8.18;6.80;;;3.30;71.50;;;;;;5114657;28;20043;-77
2023/04/06 01:17:25;;;;;;;7.72;6.22;;;3.30;71.40;;;;;;5114403;28;20038;-77
2023/04/06 01:19:53;;;;;;;8.57;6.35;;;3.30;71.30;;;;;;5098015;28;20035;-77
2023/04/06 01:22:19;;;;;;;9.57;6.97;;;3.30;71.40;;;;;;5114400;28;20092;-77
2023/04/06 01:24:45;;;;;;;9.43;6.72;;;3.30;71.70;;;;;;5097899;28;20082;-77
2023/04/06 01:27:12;;;;;;;9.40;7.05;;;3.30;71.50;;;;;;5114778;28;20047;-77
2023/04/06 01:29:40;;;;;;;7.90;6.25;;;3.30;71.40;;;;;;5114469;28;20464;-77
2023/04/06 01:32:07;;;;;;;9.18;6.93;;;3.30;71.50;;;;;;5114256;28;20040;-77
2023/04/06 01:34:32;;;;;;;9.40;6.90;;;3.30;71.30;;;;;;5114080;28;20369;-77
2023/04/06 01:36:58;;;;;;;8.80;6.60;;;3.20;71.50;;;;;;5097292;28;20047;-77
2023/04/06 01:39:25;;;;;;;8.52;6.57;;;3.20;71.50;;;;;;5148610;27;20082;-77
2023/04/06 01:41:51;;;;;;;9.77;6.70;;;3.20;71.50;;;;;;5114098;28;20043;-77
2023/04/06 01:44:17;;;;;;;9.63;6.90;;;3.20;71.10;;;;;;5113842;28;20039;-77
2023/04/06 01:46:43;;;;;;;7.13;5.93;;;3.10;71.40;;;;;;5114087;28;20040;-77
2023/04/06 01:49:09;;;;;;;8.43;6.75;;;3.20;71.30;;;;;;5097425;28;20040;-77
2023/04/06 01:51:35;;;;;;;9.18;6.55;;;3.10;71.30;;;;;;5114030;28;20043;-77
2023/04/06 01:54:00;;;;;;;9.60;6.68;;;3.10;71.60;;;;;;5114047;28;20044;-77
2023/04/06 01:56:26;;;;;;;8.02;6.50;;;3.10;71.70;;;;;;5113670;28;20039;-77
2023/04/06 01:58:52;;;;;;;10.02;7.05;;;3.10;71.60;;;;;;5148479;27;20046;-77
2023/04/06 02:01:17;;;;;;;7.88;6.78;;;3.10;71.80;;;;;;5147785;27;20116;-77
2023/04/06 02:03:43;;;;;;;9.93;7.18;;;3.10;72.10;;;;;;5113752;28;20127;-78
2023/04/06 02:06:09;;;;;;;8.80;6.95;;;3.00;72.40;;;;;;5080033;28;20039;-77
2023/04/06 02:08:35;;;;;;;9.10;6.93;;;3.00;72.40;;;;;;5148168;27;20067;-77
2023/04/06 02:11:01;;;;;;;9.00;7.20;;;3.00;72.50;;;;;;5113683;28;20077;-77
2023/04/06 02:13:26;;;;;;;10.20;7.05;;;3.00;72.70;;;;;;5113440;28;20457;-77
2023/04/06 02:15:52;;;;;;;9.25;7.13;;;3.00;72.80;;;;;;5147977;27;20126;-77
2023/04/06 02:18:18;;;;;;;7.65;6.30;;;2.90;73.30;;;;;;5147975;27;20070;-77
2023/04/06 02:20:44;;;;;;;7.75;6.38;;;2.90;73.10;;;;;;5096551;28;20044;-77
2023/04/06 02:23:11;;;;;;;9.20;6.47;;;3.00;72.60;;;;;;5113220;28;20047;-77
2023/04/06 02:25:36;;;;;;;8.23;6.38;;;2.90;72.80;;;;;;5112556;28;20126;-77
2023/04/06 02:28:02;;;;;;;11.07;6.30;;;2.90;72.70;;;;;;5079606;28;20466;-77
2023/04/06 02:30:28;;;;;;;9.07;6.78;;;2.90;72.80;;;;;;5113184;28;20388;-77
2023/04/06 02:32:54;;;;;;;7.75;6.47;;;2.90;72.60;;;;;;5113121;28;20479;-77
2023/04/06 02:35:20;;;;;;;11.32;6.75;;;2.90;72.40;;;;;;5130104;27;20061;-78
2023/04/06 02:37:46;;;;;;;10.48;6.78;;;2.90;72.10;;;;;;5096260;28;20088;-77
2023/04/06 02:40:11;;;;;;;8.02;6.25;;;3.00;72.10;;;;;;5130200;27;20483;-77
2023/04/06 02:42:37;;;;;;;7.13;6.30;;;2.90;72.20;;;;;;5113180;28;20031;-77
2023/04/06 02:45:03;;;;;;;9.38;7.10;;;2.90;72.10;;;;;;5147475;27;20122;-78
2023/04/06 02:47:29;;;;;;;7.72;6.13;;;2.90;72.10;;;;;;5113152;28;20047;-77
2023/04/06 02:49:55;;;;;;;9.65;6.75;;;2.80;72.30;;;;;;5095960;28;20039;-78
2023/04/06 02:52:20;;;;;;;8.05;6.70;;;2.80;72.60;;;;;;5147231;27;20039;-77
2023/04/06 02:54:46;;;;;;;9.85;6.57;;;2.70;72.50;;;;;;5112963;28;20044;-77
2023/04/06 02:57:12;;;;;;;8.00;6.57;;;2.60;72.90;;;;;;5095905;28;20038;-77
2023/04/06 02:59:38;;;;;;;7.65;6.13;;;2.60;72.60;;;;;;5150055;27;20055;-77
2023/04/06 03:02:03;;;;;;;8.95;7.32;;;2.60;73.00;;;;;;5116271;28;20418;-77
2023/04/06 03:04:29;;;;;;;10.45;7.18;;;2.60;73.20;;;;;;5150465;27;20125;-77
2023/04/06 03:06:55;;;;;;;9.07;7.45;;;2.60;73.10;;;;;;5116016;28;20035;-77
2023/04/06 03:09:21;;;;;;;9.18;6.82;;;2.50;73.20;;;;;;5150216;27;20089;-76
2023/04/06 03:11:47;;;;;;;9.88;7.38;;;2.50;73.10;;;;;;5098897;28;20364;-77
2023/04/06 03:14:12;;;;;;;9.93;7.43;;;2.60;73.20;;;;;;5098470;28;20068;-77
2023/04/06 03:16:38;;;;;;;9.45;7.45;;;2.60;72.80;;;;;;5098424;28;20050;-76
2023/04/06 03:19:04;;;;;;;8.65;6.70;;;2.60;72.80;;;;;;5149764;27;20039;-76
2023/04/06 03:21:29;;;;;;;10.52;7.53;;;2.60;73.30;;;;;;5098500;28;20043;-77
2023/04/06 03:23:55;;;;;;;9.15;7.32;;;2.50;73.50;;;;;;5149968;27;20039;-77
2023/04/06 03:26:22;;;;;;;8.68;7.22;;;2.40;73.70;;;;;;5098845;28;20068;-77
2023/04/06 03:28:47;;;;;;;8.02;6.70;;;2.30;73.80;;;;;;5098548;28;20047;-77
2023/04/06 03:31:13;;;;;;;9.00;7.40;;;2.20;74.30;;;;;;5098751;28;20046;-76
2023/04/06 03:33:39;;;;;;;10.77;7.85;;;2.20;74.30;;;;;;5133023;27;20042;-77
2023/04/06 03:36:06;;;;;;;9.43;7.78;;;2.10;74.60;;;;;;5099752;27;20043;-77
2023/04/06 03:38:32;;;;;;;8.50;7.13;;;2.10;74.70;;;;;;5119890;27;20086;-77
2023/04/06 03:40:58;;;;;;;10.23;7.03;;;2.10;74.80;;;;;;5120021;27;20083;-76
2023/04/06 03:43:23;;;;;;;11.15;8.20;;;2.00;75.00;;;;;;5102587;27;20035;-77
2023/04/06 03:45:49;;;;;;;10.77;7.93;;;2.00;75.00;;;;;;5102739;27;20039;-75
2023/04/06 03:48:15;;;;;;;12.38;8.07;;;1.90;75.10;;;;;;5103025;27;20035;-76
2023/04/06 03:50:41;;;;;;;11.18;7.70;;;1.90;75.20;;;;;;5102780;27;20084;-77
2023/04/06 03:53:07;;;;;;;9.60;7.13;;;1.90;75.20;;;;;;5102906;27;20042;-77
2023/04/06 03:55:32;;;;;;;10.10;7.85;;;2.00;75.30;;;;;;5119383;27;20126;-77
2023/04/06 03:57:58;;;;;;;10.38;8.13;;;1.90;75.20;;;;;;5102554;27;20124;-77
2023/04/06 04:00:24;;;;;;;9.45;7.45;;;2.00;75.10;;;;;;5136494;27;20043;-77
2023/04/06 04:02:50;;;;;;;9.05;7.30;;;2.00;74.40;;;;;;5119644;27;20038;-77
2023/04/06 04:05:16;;;;;;;10.50;7.60;;;2.10;74.70;;;;;;5119829;27;20054;-76
2023/04/06 04:07:42;;;;;;;9.60;7.10;;;2.00;74.70;;;;;;5119539;27;20046;-77
2023/04/06 04:10:08;;;;;;;11.52;7.63;;;2.10;74.50;;;;;;5102249;27;20043;-77
2023/04/06 04:12:33;;;;;;;11.93;7.95;;;2.10;74.60;;;;;;5119508;27;20039;-76
2023/04/06 04:14:59;;;;;;;13.55;8.10;;;2.00;74.80;;;;;;5102242;27;20423;-76
2023/04/06 04:17:25;;;;;;;12.73;7.68;;;2.00;75.00;;;;;;5153810;27;20118;-77
2023/04/06 04:19:51;;;;;;;9.30;7.43;;;2.00;74.60;;;;;;5102719;27;20118;-76
2023/04/06 04:22:16;;;;;;;11.10;7.68;;;1.90;75.00;;;;;;5102309;27;20035;-76
2023/04/06 04:24:42;;;;;;;11.27;7.85;;;1.90;75.10;;;;;;5136577;27;20132;-76
2023/04/06 04:27:08;;;;;;;10.73;8.43;;;1.90;75.30;;;;;;5153636;27;20536;-76
2023/04/06 04:29:34;;;;;;;12.18;8.90;;;1.90;75.40;;;;;;5153808;27;20074;-77
2023/04/06 04:31:59;;;;;;;14.35;8.70;;;1.90;74.90;;;;;;5118845;27;20046;-79
2023/04/06 04:34:25;;;;;;;11.10;8.63;;;1.90;75.00;;;;;;5152801;27;20043;-75
2023/04/06 04:36:52;;;;;;;12.23;9.57;;;1.80;75.20;;;;;;5118378;27;20031;-75
2023/04/06 04:39:17;;;;;;;12.18;8.25;;;1.80;75.60;;;;;;5101751;27;20039;-75
2023/04/06 04:41:43;;;;;;;11.35;8.82;;;1.70;75.90;;;;;;5153320;27;20042;-76
2023/04/06 04:44:09;;;;;;;12.05;8.40;;;1.70;76.00;;;;;;5153080;27;20088;-78
2023/04/06 04:46:34;;;;;;;11.82;8.88;;;1.70;76.10;;;;;;5118049;27;20088;-74
2023/04/06 04:49:00;;;;;;;11.93;8.77;;;1.80;76.40;;;;;;5116919;27;20054;-75
2023/04/06 04:51:26;;;;;;;11.57;8.70;;;1.80;76.00;;;;;;5117832;27;20463;-75
2023/04/06 04:53:52;;;;;;;13.93;9.27;;;1.80;76.50;;;;;;5101335;27;20386;-75
2023/04/06 04:56:17;;;;;;;11.68;9.55;;;1.80;76.70;;;;;;5101265;27;20436;-74
2023/04/06 04:58:43;;;;;;;11.32;8.93;;;1.80;76.90;;;;;;5101075;27;20035;-75
2023/04/06 05:01:09;;;;;;;13.15;9.35;;;1.80;76.90;;;;;;5100996;27;20108;-75
2023/04/06 05:03:38;;;;;;;12.88;8.63;;;1.80;77.10;;;;;;5118212;27;20115;-74
2023/04/06 05:06:05;;;;;;;12.05;8.70;;;1.80;77.30;;;;;;5118377;27;20466;-74
2023/04/06 05:08:31;;;;;;;13.50;9.38;;;1.80;77.20;;;;;;5118211;27;20054;-76
2023/04/06 05:10:57;;;;;;;14.63;9.10;;;1.80;77.50;;;;;;5102010;27;20039;-76
2023/04/06 05:13:22;;;;;;;11.63;8.98;;;1.80;77.60;;;;;;5101988;27;20046;-76
2023/04/06 05:15:48;;;;;;;12.82;10.05;;;1.80;77.60;;;;;;5152383;27;20491;-75
2023/04/06 05:18:14;;;;;;;12.45;9.40;;;1.80;77.50;;;;;;5117979;27;20424;-75
2023/04/06 05:20:40;;;;;;;13.30;10.05;;;1.80;77.60;;;;;;5117687;27;20406;-75
2023/04/06 05:23:06;;;;;;;10.88;9.38;;;1.80;77.50;;;;;;5083879;27;20079;-75
2023/04/06 05:25:32;;;;;;;10.77;8.20;;;1.90;77.50;;;;;;5117392;27;20126;-76
2023/04/06 05:27:58;;;;;;;11.65;8.35;;;1.90;77.20;;;;;;5100531;27;20048;-75
2023/04/06 05:30:24;;;;;;;13.88;9.23;;;1.90;77.40;;;;;;5117809;27;20043;-76
2023/04/06 05:32:50;;;;;;;10.63;9.10;;;1.90;77.50;;;;;;5117720;27;20278;-76
2023/04/06 05:35:17;;;;;;;14.55;10.10;;;1.80;77.70;;;;;;5117455;27;20176;-76
2023/04/06 05:37:43;;;;;;;12.63;9.15;;;1.90;77.70;;;;;;5100498;27;20031;-77
2023/04/06 05:40:09;;;;;;;11.52;8.50;;;1.80;77.50;;;;;;5066988;27;20031;-75
2023/04/06 05:42:42;;;;;;;13.70;9.25;;;1.90;77.70;;;;;;5083661;27;20039;-76
2023/04/06 05:45:10;;;;;;;12.88;9.68;;;2.00;77.20;;;;;;5117076;27;20042;-76
2023/04/06 05:47:36;;;;;;;13.85;9.65;;;2.00;77.60;;;;;;5100352;27;20054;-76
2023/04/06 05:50:03;;;;;;;11.85;8.98;;;2.00;77.50;;;;;;5117300;27;20039;-76
2023/04/06 05:52:28;;;;;;;13.40;9.05;;;2.10;77.30;;;;;;5117374;27;20039;-76
2023/04/06 05:54:54;;;;;;;14.68;9.85;;;2.10;77.20;;;;;;5083061;27;20038;-77
2023/04/06 05:57:20;;;;;;;13.02;9.70;;;2.20;76.70;;;;;;5100457;27;20042;-76
2023/04/06 05:59:46;;;;;;;12.63;9.38;;;2.20;76.50;;;;;;5116758;27;20403;-77
2023/04/06 06:02:12;;;;;;;15.20;10.38;;;2.30;76.40;;;;;;5117555;27;20061;-77
2023/04/06 06:04:37;;;;;;;14.23;9.80;;;2.40;76.50;;;;;;5100208;27;20483;-77
2023/04/06 06:07:03;;;;;;;17.90;11.48;;;2.40;76.50;;;;;;5117000;27;20078;-75
2023/04/06 06:09:29;;;;;;;12.45;9.30;;;2.50;76.40;;;;;;5100051;27;20031;-77
2023/04/06 06:11:55;;;;;;;15.25;10.10;;;2.50;76.60;;;;;;5099774;27;20043;-76
2023/04/06 06:14:21;;;;;;;16.00;9.82;;;2.60;76.30;;;;;;5083308;27;20060;-76
2023/04/06 06:16:47;;;;;;;14.52;9.32;;;2.60;76.80;;;;;;5116680;27;20047;-77
2023/04/06 06:19:13;;;;;;;12.07;9.15;;;2.60;76.50;;;;;;5116703;27;20087;-76
2023/04/06 06:21:39;;;;;;;14.73;9.43;;;2.70;76.30;;;;;;5116921;27;20039;-75
2023/04/06 06:24:05;;;;;;;12.80;9.48;;;2.80;76.00;;;;;;5116241;27;20038;-76
2023/04/06 06:26:31;;;;;;;14.32;9.98;;;2.80;75.90;;;;;;5099706;27;20042;-77
2023/04/06 06:28:57;;;;;;;15.18;10.05;;;3.00;75.60;;;;;;5099532;27;20039;-76
2023/04/06 06:31:23;;;;;;;13.52;10.10;;;3.10;75.60;;;;;;5116861;27;20047;-76
2023/04/06 06:33:52;;;;;;;14.27;10.63;;;3.10;75.40;;;;;;5116453;27;20051;-76
2023/04/06 06:36:18;;;;;;;14.80;9.85;;;3.20;75.50;;;;;;5116360;27;20043;-76
2023/04/06 06:38:44;;;;;;;15.10;10.15;;;3.20;75.40;;;;;;5116360;27;20035;-75
2023/04/06 06:41:11;;;;;;;12.70;10.10;;;3.30;75.40;;;;;;5116039;27;20039;-76
2023/04/06 06:43:36;;;;;;;17.33;11.25;;;3.30;76.00;;;;;;5116269;27;20084;-75
2023/04/06 06:46:03;;;;;;;15.68;10.75;;;3.40;75.50;;;;;;5116139;27;20043;-76
2023/04/06 06:48:29;;;;;;;15.93;10.13;;;3.50;75.10;;;;;;5099011;27;20037;-76
2023/04/06 06:50:55;;;;;;;15.43;10.70;;;3.60;74.80;;;;;;5116135;27;20088;-75
2023/04/06 06:53:21;;;;;;;17.30;9.38;;;3.60;74.60;;;;;;5099322;27;20130;-76
2023/04/06 06:55:48;;;;;;;14.55;9.95;;;3.70;74.60;;;;;;5082239;27;20126;-77
2023/04/06 06:58:14;;;;;;;15.00;9.77;;;3.80;74.40;;;;;;5082838;27;20042;-76
2023/04/06 07:00:40;;;;;;;13.15;9.60;;;4.00;74.20;;;;;;5113972;27;20054;-76
2023/04/06 07:03:06;;;;;;;14.98;10.77;;;4.10;73.40;;;;;;5116513;27;20122;-76
2023/04/06 07:05:32;;;;;;;13.73;9.85;;;4.30;73.00;;;;;;5115524;28;20092;-76
2023/04/06 07:07:58;;;;;;;14.05;10.07;;;4.40;72.80;;;;;;5115913;28;20039;-77
2023/04/06 07:10:24;;;;;;;14.77;10.43;;;4.50;72.30;;;;;;5114596;28;20070;-76
2023/04/06 07:12:49;;;;;;;13.35;9.70;;;4.60;72.40;;;;;;5113853;28;20051;-76
2023/04/06 07:15:16;;;;;;;13.27;9.57;;;4.70;72.40;;;;;;5148160;27;20035;-76
2023/04/06 07:17:44;;;;;;;12.90;10.43;;;4.80;71.80;;;;;;5097633;28;20112;-76
2023/04/06 07:20:11;;;;;;;14.40;9.98;;;4.80;71.40;;;;;;5081344;28;20045;-77
2023/04/06 07:22:38;;;;;;;14.70;10.05;;;4.80;71.80;;;;;;5097568;28;20085;-76
2023/04/06 07:25:04;;;;;;;15.70;10.57;;;4.90;71.80;;;;;;5114400;28;20482;-77
2023/04/06 07:27:30;;;;;;;15.57;10.30;;;4.90;71.80;;;;;;5114574;28;20043;-77
2023/04/06 07:29:55;;;;;;;13.48;10.25;;;5.00;72.00;;;;;;5098219;28;20046;-76
2023/04/06 07:32:21;;;;;;;14.98;11.05;;;5.00;72.10;;;;;;5115023;28;20445;-75
2023/04/06 07:34:47;;;;;;;13.68;9.75;;;5.10;72.70;;;;;;5114762;28;20053;-75
2023/04/06 07:37:13;;;;;;;17.55;11.43;;;5.10;72.90;;;;;;5114924;28;20042;-75
2023/04/06 07:39:38;;;;;;;15.82;10.88;;;5.20;73.30;;;;;;5097731;28;20039;-76
2023/04/06 07:42:04;;;;;;;14.35;10.25;;;5.30;72.70;;;;;;5115085;28;20443;-76
2023/04/06 07:44:30;;;;;;;16.30;9.63;;;5.40;72.40;;;;;;5081380;28;20042;-77
2023/04/06 07:46:56;;;;;;;14.38;9.65;;;5.60;72.20;;;;;;5114890;28;20054;-77
2023/04/06 07:49:22;;;;;;;15.70;9.48;;;5.60;71.70;;;;;;5149082;27;20071;-79
2023/04/06 07:51:48;;;;;;;15.32;10.10;;;5.70;71.40;;;;;;5115180;28;20043;-82
2023/04/06 07:54:14;;;;;;;13.27;9.82;;;5.80;70.80;;;;;;5097534;28;20396;-84
2023/04/06 07:56:40;;;;;;;13.57;9.30;;;5.80;70.80;;;;;;5097815;28;20130;-84
2023/04/06 07:59:06;;;;;;;15.98;9.93;;;5.90;70.50;;;;;;5097978;28;20471;-85
2023/04/06 08:01:32;;;;;;;14.93;10.20;;;6.00;70.70;;;;;;5097622;28;20044;-82
2023/04/06 08:03:58;;;;;;;16.25;9.85;;;6.10;71.10;;;;;;5097993;28;20039;-83
2023/04/06 08:06:24;;;;;;;15.20;10.25;;;6.30;70.60;;;;;;5081398;28;20039;-81
2023/04/06 08:08:50;;;;;;;13.80;9.07;;;6.40;70.60;;;;;;5097732;28;20047;-85
2023/04/06 08:11:16;;;;;;;13.82;9.75;;;6.60;69.50;;;;;;5081318;28;20042;-83
2023/04/06 08:13:42;;;;;;;15.13;10.13;;;6.80;68.20;;;;;;5081408;28;20125;-84
2023/04/06 08:16:08;;;;;;;12.88;9.40;;;6.90;68.10;;;;;;5114805;28;20035;-79
2023/04/06 08:18:33;;;;;;;11.88;9.38;;;7.10;68.10;;;;;;5097848;28;20088;-82
2023/04/06 08:20:59;;;;;;;16.48;10.02;;;7.20;67.10;;;;;;5115880;28;20544;-82
2023/04/06 08:23:25;;;;;;;11.20;9.82;;;7.30;65.40;;;;;;5083410;27;20073;-83
2023/04/06 08:25:53;;;;;;;14.65;9.90;;;7.50;66.40;;;;;;5068546;27;20043;-82
2023/04/06 08:28:21;;;;;;;15.18;10.52;;;7.60;66.70;;;;;;5137246;27;20412;-82
2023/04/06 08:30:46;;;;;;;11.45;9.70;;;7.80;65.90;;;;;;5085451;27;20402;-85
2023/04/06 08:33:12;;;;;;;15.25;10.25;;;8.10;65.10;;;;;;5119061;27;20034;-82
2023/04/06 08:35:38;;;;;;;13.20;10.32;;;8.20;65.20;;;;;;5118899;27;20395;-83
2023/04/06 08:38:04;;;;;;;16.80;11.23;;;8.30;64.00;;;;;;5101752;27;20497;-82
2023/04/06 08:40:35;;;;;;;14.55;10.65;;;8.40;64.10;;;;;;5101876;27;20043;-85
2023/04/06 08:43:03;;;;;;;14.00;10.45;;;8.40;64.60;;;;;;5119097;27;20035;-83
2023/04/06 08:45:30;;;;;;;15.60;10.98;;;8.50;63.40;;;;;;5102192;27;20077;-82
2023/04/06 08:48:01;;;;;;;17.10;11.23;;;8.60;64.00;;;;;;5118532;27;20487;-85
2023/04/06 08:50:29;;;;;;;18.17;11.77;;;8.60;62.30;;;;;;5119227;27;20168;-82
2023/04/06 08:52:55;;;;;;;13.32;10.57;;;8.70;63.10;;;;;;5085826;27;20046;-82
2023/04/06 08:55:22;;;;;;;17.63;12.60;;;8.70;63.20;;;;;;5118636;27;20162;-84
2023/04/06 08:57:48;;;;;;;18.20;12.45;;;8.70;63.80;;;;;;5101495;27;20035;-81
2023/04/06 09:00:15;;;;;;;22.15;13.45;;;8.80;63.80;;;;;;5101195;27;20152;-81
2023/04/06 09:02:45;;;;;;;16.58;11.43;;;8.80;62.60;;;;;;5080985;28;20488;-85
2023/04/06 09:05:11;;;;;;;18.77;12.25;;;8.90;63.80;;;;;;5091618;27;20035;-82
2023/04/06 09:07:37;;;;;;;17.58;12.48;;;9.00;62.90;;;;;;5101339;27;20043;-83
2023/04/06 09:10:05;;;;;;;20.40;13.65;;;9.00;63.50;;;;;;5099960;27;20360;-81
2023/04/06 09:12:32;;;;;;;18.75;12.35;;;9.20;62.60;;;;;;5100052;27;20372;-87
2023/04/06 09:14:59;;;;;;;18.65;13.57;;;9.30;61.00;;;;;;5099570;27;20038;-84
2023/04/06 09:17:33;;;;;;;19.73;13.48;;;9.30;60.00;;;;;;5116936;27;20110;-81
2023/04/06 09:20:03;;;;;;;18.23;12.85;;;9.40;59.60;;;;;;5100347;27;20074;-80
2023/04/06 09:22:41;;;;;;;19.90;12.95;;;9.40;60.00;;;;;;5100245;27;20031;-83
2023/04/06 09:25:09;;;;;;;17.15;12.60;;;9.50;58.60;;;;;;5100058;27;20046;-84
2023/04/06 09:27:37;;;;;;;18.45;14.15;;;9.50;59.50;;;;;;5116972;27;20043;-82
2023/04/06 09:30:13;;;;;;;18.73;14.00;;;9.60;58.00;;;;;;5117156;27;20096;-80
2023/04/06 09:32:47;;;;;;;18.40;12.48;;;9.70;59.00;;;;;;5099910;27;20042;-83
2023/04/06 09:35:13;;;;;;;19.27;13.52;;;9.90;58.80;;;;;;5116549;27;20043;-83
2023/04/06 09:37:39;;;;;;;18.45;14.30;;;10.00;57.90;;;;;;5082942;27;20445;-85
2023/04/06 09:40:10;;;;;;;19.88;13.57;;;10.10;58.00;;;;;;5083163;27;20036;-82
2023/04/06 09:42:36;;;;;;;20.42;13.48;;;10.10;57.40;;;;;;5116107;27;20299;-84
2023/04/06 09:45:03;;;;;;;18.58;13.45;;;10.20;56.90;;;;;;5097976;27;20364;-83
2023/04/06 09:47:31;;;;;;;20.95;14.65;;;10.10;56.00;;;;;;5115487;27;20039;-81
2023/04/06 09:50:00;;;;;;;20.08;13.70;;;10.20;55.60;;;;;;5098634;27;20414;-85
2023/04/06 09:52:37;;;;;;;19.30;13.30;;;10.20;55.30;;;;;;5099101;27;20513;-82
2023/04/06 09:55:04;;;;;;;22.58;14.30;;;10.40;55.70;;;;;;5099388;27;20043;-84
2023/04/06 09:57:47;;;;;;;20.90;14.65;;;10.40;54.90;;;;;;5082585;27;20038;-83
2023/04/06 10:00:18;;;;;;;21.30;14.10;;;10.40;53.90;;;;;;5099431;27;20038;-81
2023/04/06 10:02:55;;;;;;;20.42;14.90;;;10.50;54.70;;;;;;5116263;27;20116;-84
2023/04/06 10:05:40;;;;;;;19.38;14.02;;;10.50;54.70;;;;;;5116642;27;20055;-86
2023/04/06 10:08:09;;;;;;;20.92;14.73;;;10.60;55.10;;;;;;5099502;27;20384;-84
2023/04/06 10:10:36;;;;;;;24.02;15.40;;;10.60;54.70;;;;;;5099464;27;20396;-83
2023/04/06 10:13:03;;;;;;;20.60;13.88;;;10.70;53.60;;;;;;5099140;27;20039;-82
2023/04/06 10:15:30;;;;;;;25.67;15.38;;;10.60;52.70;;;;;;5082638;27;20394;-82
2023/04/06 10:18:00;;;;;;;20.30;14.60;;;10.50;53.10;;;;;;5116038;27;20039;-82
2023/04/06 10:20:35;;;;;;;20.58;14.15;;;10.50;52.30;;;;;;5115904;27;20031;-84
2023/04/06 10:23:04;;;;;;;23.60;14.77;;;10.50;53.20;;;;;;5099087;27;20043;-84
2023/04/06 10:25:32;;;;;;;25.90;15.20;;;10.50;53.50;;;;;;5099015;27;20103;-83
2023/04/06 10:28:05;;;;;;;29.27;16.60;;;10.60;54.10;;;;;;5115976;27;20554;-85
2023/04/06 10:30:32;;;;;;;23.40;14.90;;;10.60;53.10;;;;;;5116040;27;20461;-85
2023/04/06 10:32:57;;;;;;;20.33;14.35;;;10.60;52.70;;;;;;5116108;27;20039;-83
2023/04/06 10:35:24;;;;;;;21.85;15.30;;;10.70;54.10;;;;;;5082019;28;20394;-85
2023/04/06 10:38:00;;;;;;;22.52;15.32;;;10.80;53.50;;;;;;5115755;27;20039;-84
2023/04/06 10:40:27;;;;;;;24.63;15.25;;;10.90;52.80;;;;;;5098799;27;20042;-83
2023/04/06 10:43:06;;;;;;;20.40;14.40;;;11.00;53.00;;;;;;5115936;27;20039;-82
2023/04/06 10:45:32;;;;;;;23.88;17.23;;;10.90;52.80;;;;;;5114964;27;20125;-83
2023/04/06 10:47:58;;;;;;;23.48;16.40;;;11.00;53.50;;;;;;5115610;27;20126;-82
2023/04/06 10:50:24;;;;;;;26.55;17.75;;;11.00;54.50;;;;;;5064921;27;20039;-84
2023/04/06 10:53:01;;;;;;;24.73;17.38;;;11.10;53.90;;;;;;5115721;27;20053;-82
2023/04/06 10:55:29;;;;;;;25.08;17.02;;;11.10;53.80;;;;;;5098613;27;20474;-83
2023/04/06 10:57:55;;;;;;;24.45;16.05;;;11.10;54.10;;;;;;5114791;27;20035;-84
2023/04/06 11:00:21;;;;;;;27.77;19.15;;;11.10;54.20;;;;;;5080984;27;20035;-82
2023/04/06 11:02:48;;;;;;;29.08;17.98;;;11.10;53.70;;;;;;5097786;28;20406;-83
2023/04/06 11:05:14;;;;;;;27.20;19.25;;;11.00;53.30;;;;;;5115042;28;20035;-84
2023/04/06 11:07:41;;;;;;;29.58;19.60;;;11.00;54.20;;;;;;5081999;28;20070;-85
2023/04/06 11:10:08;;;;;;;28.60;18.13;;;11.10;55.10;;;;;;5098854;28;20043;-84
2023/04/06 11:12:34;;;;;;;27.35;17.30;;;11.20;53.80;;;;;;5117112;28;20039;-83
2023/04/06 11:15:05;;;;;;;28.95;19.35;;;11.20;52.80;;;;;;5074834;28;20402;-85
2023/04/06 11:17:36;;;;;;;26.58;19.65;;;11.30;54.10;;;;;;5098338;28;20027;-83
2023/04/06 11:20:03;;;;;;;26.42;18.02;;;11.40;55.00;;;;;;5095798;28;20047;-81
2023/04/06 11:22:30;;;;;;;27.30;19.35;;;11.50;54.70;;;;;;5115186;28;20131;-84
2023/04/06 11:25:07;;;;;;;26.95;18.45;;;11.40;53.50;;;;;;5115008;28;20050;-82
2023/04/06 11:27:36;;;;;;;25.75;18.45;;;11.50;54.20;;;;;;5097863;28;20042;-82
2023/04/06 11:30:03;;;;;;;27.20;19.08;;;11.50;53.90;;;;;;5096913;28;20042;-82
2023/04/06 11:32:29;;;;;;;30.15;19.30;;;11.50;54.10;;;;;;5097690;28;20039;-82
2023/04/06 11:34:57;;;;;;;26.52;17.75;;;11.50;53.80;;;;;;5114440;28;20081;-83
2023/04/06 11:37:27;;;;;;;27.33;17.58;;;11.50;53.60;;;;;;5080998;28;20031;-81
2023/04/06 11:39:56;;;;;;;25.38;17.00;;;11.50;54.20;;;;;;5095280;28;20035;-80
2023/04/06 11:42:29;;;;;;;25.92;17.85;;;11.60;54.30;;;;;;5114928;28;20051;-83
2023/04/06 11:44:59;;;;;;;26.92;17.58;;;11.60;54.40;;;;;;5095618;28;20035;-84
2023/04/06 11:47:30;;;;;;;25.05;18.10;;;11.50;54.10;;;;;;5071877;28;20066;-82
2023/04/06 11:50:04;;;;;;;26.42;16.70;;;11.50;55.00;;;;;;5077635;28;20126;-81
2023/04/06 11:52:31;;;;;;;26.05;17.42;;;11.60;55.50;;;;;;5094644;28;20163;-81
2023/04/06 11:54:57;;;;;;;23.80;16.77;;;11.60;55.60;;;;;;5076360;28;20119;-85
2023/04/06 11:57:26;;;;;;;23.05;16.50;;;11.70;55.70;;;;;;5096093;28;20078;-83
2023/04/06 11:59:52;;;;;;;23.38;16.52;;;11.80;56.30;;;;;;5098368;28;20073;-83
2023/04/06 12:02:18;;;;;;;27.10;16.90;;;11.90;56.20;;;;;;5081051;28;20105;-82
2023/04/06 12:04:44;;;;;;;25.75;17.48;;;11.90;55.70;;;;;;5081358;28;20039;-82
2023/04/06 12:07:10;;;;;;;32.00;18.30;;;11.90;54.90;;;;;;5098727;28;20047;-81
2023/04/06 12:09:36;;;;;;;28.20;16.50;;;11.90;56.10;;;;;;5113924;27;20471;-82
2023/04/06 12:12:03;;;;;;;23.13;17.13;;;11.90;55.90;;;;;;5118318;27;20039;-83
2023/04/06 12:14:30;;;;;;;24.13;16.65;;;11.80;55.90;;;;;;5101842;27;20050;-82
2023/04/06 12:16:57;;;;;;;25.52;17.65;;;11.70;56.00;;;;;;5118444;27;20410;-83
2023/04/06 12:19:25;;;;;;;21.58;15.48;;;11.70;56.80;;;;;;5118811;27;20043;-83
2023/04/06 12:21:52;;;;;;;27.45;17.13;;;11.60;56.90;;;;;;5118502;27;20402;-83
2023/04/06 12:24:18;;;;;;;24.95;14.07;;;11.50;58.20;;;;;;5118839;27;20039;-83
2023/04/06 12:26:44;;;;;;;21.33;14.35;;;11.40;58.70;;;;;;5101183;27;20502;-84
2023/04/06 12:29:09;;;;;;;20.10;13.68;;;11.40;59.30;;;;;;5101030;27;20043;-82
2023/04/06 12:31:38;;;;;;;18.23;13.32;;;11.30;59.60;;;;;;5101242;27;20039;-81
2023/04/06 12:34:04;;;;;;;17.63;11.77;;;11.30;60.60;;;;;;5118281;27;20039;-82
2023/04/06 12:36:30;;;;;;;16.65;12.68;;;11.30;60.90;;;;;;5101032;27;20566;-81
2023/04/06 12:38:56;;;;;;;20.10;12.80;;;11.30;61.00;;;;;;5100808;27;20126;-82
2023/04/06 12:41:22;;;;;;;16.83;13.20;;;11.30;62.70;;;;;;5101146;27;20070;-82